Accueil
METAR-TAF:

METAR-TAF

Aéroports :

Aéroport de Kangiqsujuaq

Kangiqsujuaq, Québec, Canada

latitude: 61-35N, longitude: 071-56W, altitude: 151 m

Observation

Le bulletin a été fait il y a 7 heures et 45 minutes, à 22:00 UTC
Vent 4 kt de est/sud-est
Température -23°C
Humidité 63%
Pression 1016 hPa
Visibilité: 24.1 km
Quelques nuages à une hauteur de 7000 ft
Nuages fragmentés à une hauteur de 25000 ft

METAR: CYKG 152200Z 12004KT 15SM FEW070 BKN250 M23/M28 A3001 RMK AS1CI5 SN COV/TR LOOSE/LAST STFD OBS/NXT 161300 UTC SLP186

Heure: 00:45 (05:45 UTC)

Prévision

Le bulletin a été fait il y a 15 heures et 7 minutes, à 14:38 UTC
Prévision valable du 15 à 15 UTC au 15 à 22 UTC
Vent 3 kt de direction variable
Visibilité: 10 km
Nuages épars à une hauteur de 8000 ft
Nuages épars à une hauteur de 25000 ft

TAF: CYKG 151438Z 1515/1522 VRB03KT P6SM SCT080 SCT250 RMK NXT FCST WILL BE ISSUED AT 161445Z

Observations et prévisions météorologiques de plus de 4000 aéroports (messages METAR et TAF).

Les stations disponibles sont représentées par des disques jaunes et rouges sur la carte.

Passer la souris dessus pour voir le nom de la station.

Cliquer dessus pour voir les observations et prévisions météorologiques.

Pour changer de carte: cliquez sur les boutons verts avec une croix noire pour zoomer, sur le bouton vert avec un tiret pour effectuer un zoom arrière, ou sur les flèches vertes pour les cartes adjacentes.


METAR-TAF: